VOCL

Calicut International Airport

Calicut, India
TAF VOCL 182300Z 1900/2006 08005KT 4000 HZ FEW015 SCT090 TEMPO 1900/1903 2000 BR FEW025CB BECMG 1905/1906 28010KT 5000 HZ TEMPO 1909/1912 FEW025CB BECMG 1917/1918 08005KT 4000 HZ TEMPO 1923/2003 2000 BR FEW025CB BECMG 2005/2006 28010KT 5000 HZ
Issued Valid From Valid To
Jan-18 @ 23:00 UTC
(4 hours ago)
Jan-19 @ 00:00 UTC
(3 hours ago)
Jan-20 @ 06:00 UTC
(-1 days ago)
Jan-19 @ 00:00 to Jan-19 @ 05:00
TAF VOCL 182300Z 1900/2006 08005KT 4000 HZ FEW015 SCT090
Wind Visibility Clouds Conditions
80° at 5 knots 4,007 meters
  • Few at 1,500' AGL
  • Scattered at 9,000' AGL
  • Haze
Temporary Jan-19 @ 00:00 to Jan-19 @ 03:00
TEMPO 1900/1903 2000 BR FEW025CB
Visibility Clouds Conditions
1,996 meters
  • Few at 2,500' AGL
  • Mist
Becoming Jan-19 @ 05:00 to Jan-19 @ 17:00
BECMG 1905/1906 28010KT 5000 HZ
Wind Visibility Clouds Conditions
280° at 10 knots 5,005 meters
  • Few at 1,500' AGL
  • Scattered at 9,000' AGL
  • Haze
Temporary Jan-19 @ 09:00 to Jan-19 @ 12:00
TEMPO 1909/1912 FEW025CB
Clouds
  • Few at 2,500' AGL
Becoming Jan-19 @ 17:00 to Jan-20 @ 05:00
BECMG 1917/1918 08005KT 4000 HZ
Wind Visibility Clouds Conditions
80° at 5 knots 4,007 meters
  • Few at 1,500' AGL
  • Scattered at 9,000' AGL
  • Haze
Temporary Jan-19 @ 23:00 to Jan-20 @ 03:00
TEMPO 1923/2003 2000 BR FEW025CB
Visibility Clouds Conditions
1,996 meters
  • Few at 2,500' AGL
  • Mist
Becoming Jan-20 @ 05:00 to Jan-20 @ 06:00
BECMG 2005/2006 28010KT 5000 HZ
Wind Visibility Clouds Conditions
280° at 10 knots 5,005 meters
  • Few at 1,500' AGL
  • Scattered at 9,000' AGL
  • Haze
TAF VOCL 182300Z 1900/2006 08005KT 4000 HZ FEW015 SCT090 TEMPO 1900/1903 2000 BR FEW025CB BECMG 1905/1906 28010KT 5000 HZ TEMPO 1909/1912 FEW025CB BECMG 1917/1918 08005KT 4000 HZ TEMPO 1923/2003 2000 BR FEW025CB BECMG 2005/2006 28010KT 5000 HZ
Issued Jan-18 @ 23:00 UTC
(4 hours ago)
Valid From Jan-19 @ 00:00 UTC
(3 hours ago)
Valid To Jan-20 @ 06:00 UTC
(-1 days ago)
Jan-19 @ 00:00 - Jan-19 @ 05:00
Wind Visibility
80° at 5 knots 4,007 meters
Clouds
  • Few at 1,500' AGL
  • Scattered at 9,000' AGL
Conditions
  • Haze
Temporary Jan-19 @ 00:00 - Jan-19 @ 03:00
Clouds
  • Few at 2,500' AGL
Conditions
  • Mist
Becoming Jan-19 @ 05:00 - Jan-19 @ 17:00
Wind Visibility
280° at 10 knots 5,005 meters
Clouds
  • Few at 1,500' AGL
  • Scattered at 9,000' AGL
Conditions
  • Haze
Temporary Jan-19 @ 09:00 - Jan-19 @ 12:00
Clouds
  • Few at 2,500' AGL
Becoming Jan-19 @ 17:00 - Jan-20 @ 05:00
Wind Visibility
80° at 5 knots 4,007 meters
Clouds
  • Few at 1,500' AGL
  • Scattered at 9,000' AGL
Conditions
  • Haze
Temporary Jan-19 @ 23:00 - Jan-20 @ 03:00
Clouds
  • Few at 2,500' AGL
Conditions
  • Mist
Becoming Jan-20 @ 05:00 - Jan-20 @ 06:00
Wind Visibility
280° at 10 knots 5,005 meters
Clouds
  • Few at 1,500' AGL
  • Scattered at 9,000' AGL
Conditions
  • Haze